x

Seal Rocks - Between Montague And Hinchinbrook Islands, Ak (46061) Wave Buoy

3:50pm - Wed 20th Sep 2017 All times are AKDT. -8 hours from GMT.

  • Sig Wave height 1.3ft
  • Swell Direction
  • Peak Period 15s
  • Average Period 6s
  • Wind
    4mph, 7mph gusts
  • Sea Temp 55°f
  • Air Temp 54°f
  • Sea Pressure 1017.7mb
  • Seal Rocks - Between Montague And Hinchinbrook Islands, Ak
  • Seal Rocks - Between Montague And Hinchinbrook Islands, Ak

More Historic Weather Station data

Upgrade to MSW Pro to gain access to the past 30 days of data for over 8000 Wavebouys and Weather Stations around the globe.

Join

Comparision Forecast

View Surf forecast
   
Wed 09/20 3:50pm 1.3ft 15s 6s 4 7 mph 1017.7mb 55f 54f
2:50pm 1.3ft 8s 6s 4 7 mph 1017.7mb 55f 54f
1:50pm 1.3ft 8s 6s 7 7 mph 1017.6mb 54f 53f
12:50pm 1.3ft 7s 6s 4 4 mph 1017.8mb 54f 53f
11:50am 1.3ft 7s 6s  -  0 mph 1017.9mb 53f 54f
10:50am 1.3ft 7s 6s 4 7 mph 1017.8mb 54f 53f
9:50am 1.3ft 7s 6s 4 7 mph 1017.7mb 53f 52f
8:50am 1.6ft 8s 7s 4 4 mph 1018.1mb 53f 52f
7:50am 2ft 8s 7s 7 9 mph 1017.6mb 54f 53f
6:50am 2ft 8s 7s 11 13 mph 1017.3mb 53f 53f
5:50am 2ft 9s 7s 11 13 mph 1016.8mb 53f 54f
4:50am 2ft 9s 7s 9 11 mph 1016.5mb 53f 53f
3:50am 1.6ft 8s 6s 13 16 mph 1016.7mb 54f 53f
2:50am 1.3ft 16s 6s 9 11 mph 1016.6mb 54f 54f
1:50am 1.6ft 16s 6s 7 9 mph 1016.3mb 53f 54f
12:50am 1.6ft 8s 6s 7 9 mph 1015.5mb 53f 53f
Tue 09/19 11:50pm 1.6ft 7s 6s 9 11 mph 1015.2mb 54f 54f
10:50pm 1.6ft 7s 7s 7 9 mph 1015.6mb 54f 55f
9:50pm 1.3ft 8s 6s 2 2 mph 1015.3mb 54f 55f
8:50pm 2ft 8s 7s  -  2 mph 1014.9mb 54f 54f
7:50pm 2ft 8s 7s  -  2 mph 1014.5mb 54f 55f
6:50pm 3ft 10s 8s 2 2 mph 1014.1mb 54f 55f
5:50pm 3.5ft 9s 8s 2 4 mph 1013.5mb 54f 55f
4:50pm 2.5ft 10s  -  11 11 mph 1013mb 54f 55f
3:50pm 2.5ft 8s 6s 11 13 mph 1012.4mb 54f 55f
2:50pm 2ft 8s 5s 11 13 mph 1012.1mb 54f 54f
1:50pm 2.5ft 8s 5s 11 13 mph 1011.9mb 54f 54f
12:50pm 2.5ft 9s 5s 13 16 mph 1011.5mb 54f 55f
11:50am 2.5ft 7s 5s 13 13 mph 1011.1mb 54f 54f
10:50am 2.5ft 8s 6s 11 13 mph 1011mb 54f 53f
9:50am 2.5ft 8s 6s 16 20 mph 1010.4mb 53f 53f
8:50am 2.5ft 9s 6s 13 16 mph 1010mb 53f 53f
7:50am 2.5ft 10s 7s 13 16 mph 1009.8mb 53f 52f
6:50am 3.5ft 9s 7s 11 11 mph 1009.6mb 53f 52f
5:50am 2.5ft 9s 8s 16 18 mph 1009mb 53f 51f
4:50am 2.5ft 11s 7s 13 16 mph 1008.2mb 53f 52f
3:50am 3ft 11s 8s 11 16 mph 1007.8mb 53f 52f
2:50am 3ft 10s 7s 9 11 mph 1007.4mb 54f 51f
1:50am 3.5ft 8s 7s 11 13 mph 1006.7mb 54f 52f
12:50am 3ft 8s 7s 9 9 mph 1006.3mb 54f 51f
Mon 09/18 11:50pm 3ft 7s 6s 4 7 mph 1006mb 54f 52f
10:50pm 3ft 8s 6s 4 7 mph 1005.6mb 54f 52f
9:50pm 3ft 8s 5s 7 7 mph 1005.3mb 54f 52f
8:50pm 3.5ft 7s 6s 7 7 mph 1005.1mb 54f 53f
7:50pm 4.5ft 9s 7s 9 9 mph 1004.7mb 53f 52f
6:50pm 4ft 10s 7s 9 11 mph 1004.3mb 54f 52f
5:50pm 4ft 11s 8s 9 11 mph 1004mb 54f 53f
4:50pm 3.5ft 11s 8s 7 9 mph 1004mb 54f 52f
3:50pm 4ft 11s 8s 7 9 mph 1003.8mb 54f 52f
2:50pm 3.5ft 11s 8s 7 9 mph 1003.8mb 54f 53f
1:50pm 3.5ft 11s 8s 9 11 mph 1003.7mb 54f 52f
12:50pm 3.5ft 9s 7s 13 16 mph 1003.5mb 54f 52f
11:50am 3.5ft 8s 7s 11 13 mph 1003.3mb 54f 52f
10:50am 4ft 13s 7s 11 13 mph 1003.2mb 54f 52f
9:50am 4.5ft 8s 7s 11 13 mph 1003.1mb 54f 52f
8:50am 5ft 8s 7s 11 13 mph 1003mb 54f 52f
7:50am 4.5ft 8s 7s 9 11 mph 1002.8mb 53f 53f
6:50am 4.5ft 8s 8s 4 7 mph 1002.6mb 53f 53f
5:50am 4.5ft 9s 8s 4 7 mph 1002.4mb 53f 52f
4:50am 4ft 11s 8s 2 4 mph 1002.1mb 53f 52f
3:50am 4ft 12s 8s 2 4 mph 1002mb 53f 53f
2:50am 4.5ft 11s 8s 4 7 mph 1002mb 53f 52f
1:50am 4.5ft 14s 8s 4 4 mph 1001.8mb 53f 52f
12:50am 5ft 11s 8s 2 4 mph 1001.6mb 53f 53f
Sun 09/17 11:50pm 6ft 9s 8s 4 4 mph 1001.4mb 53f 53f
10:50pm 6ft 12s 9s 7 9 mph 1001.3mb 53f 53f
9:50pm 6ft 15s 8s 9 11 mph 1001.4mb 53f 53f
8:50pm 5ft 9s 8s 7 9 mph 1000.9mb 53f 53f
7:50pm 5ft 9s 8s 7 9 mph 1000.7mb 53f 53f
6:50pm 5ft 8s  -  7 9 mph 1000.3mb 53f 53f
5:50pm 5ft 8s 8s 2 2 mph 1000mb 53f 53f
4:50pm 5ft 9s 8s 4 7 mph 999.4mb 54f 53f
3:50pm 4.5ft 9s 8s 4 7 mph 999.1mb 54f 53f
2:50pm 4.5ft 13s 8s 4 7 mph 998.8mb 54f 53f
1:50pm 4.5ft 12s 8s 7 9 mph 998.4mb 53f 53f
12:50pm 4.5ft 14s 8s 9 9 mph 997.9mb 53f 52f
11:50am 5ft 10s 8s 9 11 mph 997.6mb 53f 53f
10:50am 5.5ft 8s 8s 2 4 mph 997.3mb 53f 50f
9:50am 5ft 9s 8s 9 11 mph 996.9mb 53f 50f
8:50am 6ft 10s 7s 11 13 mph 996.4mb 53f 51f
7:50am 5ft 8s 7s 11 16 mph 995.9mb 53f 51f
6:50am 6ft 8s 7s 13 16 mph 995.2mb 53f 50f
5:50am 5.5ft 8s 6s 29 34 mph 993.8mb 53f 51f
4:50am 5.5ft 8s 6s 4 9 mph 994.5mb 53f 49f
3:50am 5.5ft 9s 6s 22 25 mph 994mb 54f 50f
2:50am 5ft 9s 6s 7 9 mph 994mb 54f 50f
1:50am 5ft 9s 6s 2 4 mph 993.5mb 54f 50f
12:50am 5ft 8s 6s 16 34 mph 992.9mb 54f 51f